createdAt,value
2018-04-02T00:00:37.189Z,0.00
2018-04-02T00:01:37.249Z,0.00
2018-04-02T00:02:37.102Z,0.00
2018-04-02T00:03:37.165Z,0.00
2018-04-02T00:04:37.158Z,0.00
2018-04-02T00:05:37.329Z,0.00
2018-04-02T00:06:37.196Z,0.00
2018-04-02T00:07:38.792Z,0.00
2018-04-02T00:08:36.999Z,0.00
2018-04-02T00:09:37.015Z,0.00
2018-04-02T00:10:37.041Z,0.00
2018-04-02T00:11:37.867Z,0.00
2018-04-02T00:12:37.025Z,0.00
2018-04-02T00:13:36.982Z,0.00
2018-04-02T00:14:36.934Z,0.00
2018-04-02T00:15:37.052Z,0.00
2018-04-02T00:16:37.936Z,0.00
2018-04-02T00:17:36.913Z,0.00
2018-04-02T00:18:36.870Z,0.00
2018-04-02T00:19:36.968Z,0.00
2018-04-02T00:20:36.936Z,0.00
2018-04-02T00:21:37.819Z,0.00
2018-04-02T00:22:36.795Z,0.00
2018-04-02T00:23:37.398Z,0.00
2018-04-02T00:24:36.915Z,0.00
2018-04-02T00:25:36.924Z,0.00
2018-04-02T00:26:36.788Z,0.00
2018-04-02T00:27:36.787Z,0.00
2018-04-02T00:28:36.716Z,0.00
2018-04-02T00:29:36.769Z,0.00
2018-04-02T00:30:37.314Z,0.00
2018-04-02T00:31:36.737Z,0.00
2018-04-02T00:32:36.675Z,0.00
2018-04-02T00:33:36.605Z,0.00
2018-04-02T00:34:36.581Z,0.00
2018-04-02T00:35:37.283Z,0.00
2018-04-02T00:36:37.290Z,0.00
2018-04-02T00:37:37.437Z,0.00
2018-04-02T00:38:36.560Z,0.00
2018-04-02T00:39:37.282Z,0.00
2018-04-02T00:40:36.521Z,0.00
2018-04-02T00:41:36.497Z,0.00
2018-04-02T00:42:38.295Z,0.00
2018-04-02T00:43:36.619Z,0.00
2018-04-02T00:44:37.347Z,0.00
2018-04-02T00:45:36.409Z,0.00
2018-04-02T00:46:37.322Z,0.00
2018-04-02T00:47:37.254Z,0.00
2018-04-02T00:48:36.378Z,0.00
2018-04-02T00:49:36.352Z,0.00
2018-04-02T00:50:36.321Z,0.00
2018-04-02T00:51:36.298Z,0.00
2018-04-02T00:52:36.344Z,0.00
2018-04-02T00:53:36.312Z,0.00
2018-04-02T00:54:36.804Z,0.00
2018-04-02T00:55:36.869Z,0.00
2018-04-02T00:56:36.223Z,0.00
2018-04-02T00:57:36.202Z,0.00
2018-04-02T00:58:36.868Z,0.00
2018-04-02T00:59:36.180Z,0.00
2018-04-02T01:00:36.354Z,0.00
2018-04-02T01:01:36.188Z,0.00
2018-04-02T01:02:36.231Z,0.00
2018-04-02T01:03:36.882Z,0.00
2018-04-02T01:04:36.110Z,0.00
2018-04-02T01:05:36.162Z,0.00
2018-04-02T01:06:36.142Z,0.00
2018-04-02T01:07:36.056Z,0.00
2018-04-02T01:08:36.353Z,0.00
2018-04-02T01:09:36.038Z,0.00
2018-04-02T01:10:36.019Z,0.00
2018-04-02T01:11:36.871Z,0.00
2018-04-02T01:12:35.958Z,0.00
2018-04-02T01:13:36.844Z,0.00
2018-04-02T01:14:36.079Z,0.00
2018-04-02T01:15:36.890Z,0.00
2018-04-02T01:16:35.924Z,0.00
2018-04-02T01:17:35.900Z,0.00
2018-04-02T01:18:36.005Z,0.00
2018-04-02T01:19:35.870Z,0.00
2018-04-02T01:20:35.814Z,0.00
2018-04-02T01:21:36.832Z,0.00
2018-04-02T01:22:36.775Z,0.00
2018-04-02T01:23:35.908Z,0.00
2018-04-02T01:24:35.836Z,0.00
2018-04-02T01:25:35.767Z,0.00
2018-04-02T01:26:36.380Z,0.00
2018-04-02T01:27:35.709Z,0.00
2018-04-02T01:28:35.885Z,0.00
2018-04-02T01:29:36.273Z,0.00
2018-04-02T01:30:35.712Z,0.00
2018-04-02T01:31:35.680Z,0.00
2018-04-02T01:32:35.611Z,0.00
2018-04-02T01:33:35.656Z,0.00
2018-04-02T01:34:35.940Z,0.00
2018-04-02T01:35:35.601Z,0.00
2018-04-02T01:36:35.675Z,0.00
2018-04-02T01:37:35.547Z,0.00
2018-04-02T01:38:35.528Z,0.00
2018-04-02T01:39:35.503Z,0.00
2018-04-02T01:40:35.600Z,0.00
2018-04-02T01:41:35.554Z,0.00
2018-04-02T01:42:35.477Z,0.00
2018-04-02T01:43:35.443Z,0.00
2018-04-02T01:44:35.434Z,0.00
2018-04-02T01:45:36.521Z,0.00
2018-04-02T01:46:35.462Z,0.00
2018-04-02T01:47:35.415Z,0.00
2018-04-02T01:48:35.400Z,0.00
2018-04-02T01:49:35.400Z,0.00
2018-04-02T01:50:35.415Z,0.00
2018-04-02T01:51:35.315Z,0.00
2018-04-02T01:52:35.865Z,0.00
2018-04-02T01:53:35.406Z,0.00
2018-04-02T01:54:35.287Z,0.00
2018-04-02T01:55:35.398Z,0.00
2018-04-02T01:56:35.494Z,0.00
2018-04-02T01:57:35.458Z,0.00
2018-04-02T01:58:35.183Z,0.00
2018-04-02T01:59:35.167Z,0.00
2018-04-02T02:00:35.165Z,0.00
2018-04-02T02:01:35.140Z,0.00
2018-04-02T02:02:35.131Z,0.00
2018-04-02T02:03:35.149Z,0.00
2018-04-02T02:04:35.099Z,0.00
2018-04-02T02:05:35.810Z,0.00
2018-04-02T02:06:35.136Z,0.00
2018-04-02T02:07:35.050Z,0.00
2018-04-02T02:08:35.039Z,0.00
2018-04-02T02:09:35.105Z,0.00
2018-04-02T02:10:34.988Z,0.00
2018-04-02T02:11:35.800Z,0.00
2018-04-02T02:12:35.791Z,0.00
2018-04-02T02:13:34.997Z,0.00
2018-04-02T02:14:34.959Z,0.00
2018-04-02T02:15:35.046Z,0.00
2018-04-02T02:16:34.964Z,0.00
2018-04-02T02:17:34.881Z,0.00
2018-04-02T02:18:34.919Z,0.00
2018-04-02T02:19:34.907Z,0.00
2018-04-02T02:20:34.856Z,0.00
2018-04-02T02:21:34.912Z,0.00
2018-04-02T02:22:41.776Z,0.00
2018-04-02T02:23:34.806Z,0.00
2018-04-02T02:24:34.917Z,0.00
2018-04-02T02:25:34.769Z,0.00
2018-04-02T02:26:34.782Z,0.00
2018-04-02T02:27:34.699Z,0.00
2018-04-02T02:28:35.300Z,0.00
2018-04-02T02:29:34.706Z,0.00
2018-04-02T02:30:34.706Z,0.00
2018-04-02T02:31:34.662Z,0.00
2018-04-02T02:32:35.410Z,0.00
2018-04-02T02:33:34.728Z,0.00
2018-04-02T02:34:35.271Z,0.00
2018-04-02T02:35:34.578Z,0.00
2018-04-02T02:36:34.626Z,0.00
2018-04-02T02:37:34.600Z,0.00
2018-04-02T02:38:34.561Z,0.00
2018-04-02T02:39:34.594Z,0.00
2018-04-02T02:40:34.510Z,0.00
2018-04-02T02:41:35.353Z,0.00
2018-04-02T02:42:34.450Z,0.00
2018-04-02T02:43:34.512Z,0.00
2018-04-02T02:44:34.474Z,0.00
2018-04-02T02:45:34.509Z,0.00
2018-04-02T02:46:34.442Z,0.00
2018-04-02T02:47:34.434Z,0.00
2018-04-02T02:48:34.402Z,0.00
2018-04-02T02:49:34.384Z,0.00
2018-04-02T02:50:34.461Z,0.00
2018-04-02T02:51:35.086Z,0.00
2018-04-02T02:52:34.295Z,0.00
2018-04-02T02:53:34.323Z,0.00
2018-04-02T02:54:34.345Z,0.00
2018-04-02T02:55:34.380Z,0.00
2018-04-02T02:56:35.793Z,0.00
2018-04-02T02:57:34.214Z,0.00
2018-04-02T02:58:34.246Z,0.00
2018-04-02T02:59:34.191Z,0.00
2018-04-02T03:00:34.194Z,0.00
2018-04-02T03:01:34.237Z,0.00
2018-04-02T03:02:34.285Z,0.00
2018-04-02T03:03:34.182Z,0.00
2018-04-02T03:04:34.980Z,0.00
2018-04-02T03:05:34.154Z,0.00
2018-04-02T03:06:34.853Z,0.00
2018-04-02T03:07:34.097Z,0.00
2018-04-02T03:08:34.133Z,0.00
2018-04-02T03:09:34.829Z,0.00
2018-04-02T03:10:34.809Z,0.00
2018-04-02T03:11:34.048Z,0.00
2018-04-02T03:12:34.058Z,0.00
2018-04-02T03:13:33.999Z,0.00
2018-04-02T03:14:35.788Z,0.00
2018-04-02T03:15:33.958Z,0.00
2018-04-02T03:16:33.945Z,0.00
2018-04-02T03:17:33.924Z,0.00
2018-04-02T03:18:33.937Z,0.00
2018-04-02T03:19:33.873Z,0.00
2018-04-02T03:20:33.858Z,0.00
2018-04-02T03:21:33.823Z,0.00
2018-04-02T03:22:33.816Z,0.00
2018-04-02T03:23:33.851Z,0.00
2018-04-02T03:24:34.841Z,0.00
2018-04-02T03:25:33.817Z,0.00
2018-04-02T03:26:33.765Z,0.00
2018-04-02T03:27:33.788Z,0.00
2018-04-02T03:28:34.894Z,0.00
2018-04-02T03:29:33.716Z,0.00
2018-04-02T03:30:33.725Z,0.00
2018-04-02T03:31:33.725Z,0.00
2018-04-02T03:32:33.630Z,0.00
2018-04-02T03:33:33.672Z,0.00
2018-04-02T03:34:33.687Z,0.00
2018-04-02T03:35:33.620Z,0.00
2018-04-02T03:36:33.621Z,0.00
2018-04-02T03:37:33.615Z,0.00
2018-04-02T03:38:33.547Z,0.00
2018-04-02T03:39:33.562Z,0.00
2018-04-02T03:40:33.857Z,0.00
2018-04-02T03:41:34.352Z,0.00
2018-04-02T03:42:33.485Z,0.00
2018-04-02T03:43:33.464Z,0.00
2018-04-02T03:44:33.443Z,0.00
2018-04-02T03:45:33.902Z,0.00
2018-04-02T03:46:33.411Z,0.00
2018-04-02T03:47:34.070Z,0.00
2018-04-02T03:48:33.456Z,0.00
2018-04-02T03:49:33.403Z,0.00
2018-04-02T03:50:33.347Z,0.00
2018-04-02T03:51:33.344Z,0.00
2018-04-02T03:52:33.349Z,0.00
2018-04-02T03:53:33.398Z,0.00
2018-04-02T03:54:33.285Z,0.00
2018-04-02T03:55:33.288Z,0.00
2018-04-02T03:56:33.287Z,0.00
2018-04-02T03:57:33.237Z,0.00
2018-04-02T03:58:33.383Z,0.00
2018-04-02T03:59:33.203Z,0.00
2018-04-02T04:00:33.253Z,0.00
2018-04-02T04:01:33.176Z,0.00
2018-04-02T04:02:34.763Z,0.00
2018-04-02T04:03:33.198Z,0.00
2018-04-02T04:04:33.126Z,0.00
2018-04-02T04:05:33.191Z,0.00
2018-04-02T04:06:33.108Z,0.00
2018-04-02T04:07:33.215Z,0.00
2018-04-02T04:08:33.127Z,0.00
2018-04-02T04:09:33.073Z,0.00
2018-04-02T04:10:33.039Z,0.00
2018-04-02T04:11:33.009Z,0.00
2018-04-02T04:12:33.095Z,0.00
2018-04-02T04:13:33.056Z,0.00
2018-04-02T04:14:32.946Z,0.00
2018-04-02T04:15:32.966Z,0.00
2018-04-02T04:16:32.961Z,0.00
2018-04-02T04:17:32.899Z,0.00
2018-04-02T04:18:32.942Z,0.00
2018-04-02T04:19:32.977Z,0.00
2018-04-02T04:20:32.905Z,0.00
2018-04-02T04:21:32.860Z,0.00
2018-04-02T04:22:32.841Z,0.00
2018-04-02T04:23:32.844Z,0.00
2018-04-02T04:24:32.851Z,0.00
2018-04-02T04:25:32.804Z,0.00
2018-04-02T04:26:32.768Z,0.00
2018-04-02T04:27:32.747Z,0.00
2018-04-02T04:28:32.732Z,0.00
2018-04-02T04:29:32.685Z,0.00
2018-04-02T04:30:32.810Z,0.00
2018-04-02T04:31:32.697Z,0.00
2018-04-02T04:32:32.735Z,0.00
2018-04-02T04:33:32.640Z,0.00
2018-04-02T04:34:32.594Z,0.00
2018-04-02T04:35:32.581Z,0.00
2018-04-02T04:36:32.595Z,0.00
2018-04-02T04:37:32.536Z,0.00
2018-04-02T04:38:32.546Z,0.00
2018-04-02T04:39:32.506Z,0.00
2018-04-02T04:40:32.545Z,0.00
2018-04-02T04:41:32.484Z,0.00
2018-04-02T04:42:32.489Z,0.00
2018-04-02T04:43:32.478Z,0.00
2018-04-02T04:44:32.429Z,0.00
2018-04-02T04:45:32.513Z,0.00
2018-04-02T04:46:32.386Z,0.00
2018-04-02T04:47:32.392Z,0.00
2018-04-02T04:48:32.717Z,0.00
2018-04-02T04:49:32.362Z,0.00
2018-04-02T04:50:32.326Z,0.00
2018-04-02T04:51:32.348Z,0.00
2018-04-02T04:52:32.298Z,0.00
2018-04-02T04:53:32.283Z,0.00
2018-04-02T04:54:32.306Z,0.00
2018-04-02T04:55:32.232Z,0.00
2018-04-02T04:56:32.223Z,0.00
2018-04-02T04:57:32.212Z,0.00
2018-04-02T04:58:32.178Z,0.00
2018-04-02T04:59:32.208Z,5.63
2018-04-02T05:00:32.749Z,5.63
2018-04-02T05:01:32.131Z,5.63
2018-04-02T05:02:32.144Z,5.63
2018-04-02T05:03:32.117Z,5.63
2018-04-02T05:04:33.248Z,5.63
2018-04-02T05:05:32.086Z,5.63
2018-04-02T05:06:32.061Z,5.63
2018-04-02T05:07:32.059Z,5.63
2018-04-02T05:08:32.032Z,5.63
2018-04-02T05:09:32.012Z,5.63
2018-04-02T05:10:31.986Z,5.63
2018-04-02T05:11:32.002Z,5.63
2018-04-02T05:12:31.943Z,5.63
2018-04-02T05:13:31.947Z,5.63
2018-04-02T05:14:31.904Z,5.63
2018-04-02T05:15:31.902Z,5.63
2018-04-02T05:16:31.926Z,11.25
2018-04-02T05:17:31.882Z,11.25
2018-04-02T05:18:31.855Z,16.88
2018-04-02T05:19:31.823Z,16.88
2018-04-02T05:20:31.809Z,16.88
2018-04-02T05:21:31.792Z,16.88
2018-04-02T05:22:31.810Z,16.88
2018-04-02T05:23:31.776Z,16.88
2018-04-02T05:24:32.254Z,16.88
2018-04-02T05:25:31.740Z,16.88
2018-04-02T05:26:31.716Z,16.88
2018-04-02T05:27:31.747Z,11.25
2018-04-02T05:28:31.699Z,16.88
2018-04-02T05:29:33.232Z,16.88
2018-04-02T05:30:31.664Z,16.88
2018-04-02T05:31:31.626Z,16.88
2018-04-02T05:32:31.618Z,16.88
2018-04-02T05:33:31.638Z,16.88
2018-04-02T05:34:31.564Z,16.88
2018-04-02T05:35:31.560Z,16.88
2018-04-02T05:36:32.251Z,22.50
2018-04-02T05:37:31.552Z,22.50
2018-04-02T05:38:31.504Z,22.50
2018-04-02T05:39:32.258Z,28.13
2018-04-02T05:40:31.505Z,22.50
2018-04-02T05:41:31.484Z,28.13
2018-04-02T05:42:32.268Z,28.13
2018-04-02T05:43:31.423Z,33.75
2018-04-02T05:44:31.449Z,33.75
2018-04-02T05:45:31.460Z,33.75
2018-04-02T05:46:31.366Z,33.75
2018-04-02T05:47:31.376Z,28.13
2018-04-02T05:48:31.329Z,33.75
2018-04-02T05:49:31.319Z,33.75
2018-04-02T05:50:31.354Z,33.75
2018-04-02T05:51:31.287Z,33.75
2018-04-02T05:52:31.261Z,39.38
2018-04-02T05:53:31.256Z,45.00
2018-04-02T05:54:31.271Z,39.38
2018-04-02T05:55:31.253Z,39.38
2018-04-02T05:56:31.213Z,45.00
2018-04-02T05:57:31.764Z,39.38
2018-04-02T05:58:31.191Z,39.38
2018-04-02T05:59:31.160Z,33.75
2018-04-02T06:00:31.164Z,39.38
2018-04-02T06:01:31.125Z,39.38
2018-04-02T06:02:31.101Z,39.38
2018-04-02T06:03:31.143Z,39.38
2018-04-02T06:04:31.069Z,45.00
2018-04-02T06:05:31.054Z,45.00
2018-04-02T06:06:31.040Z,45.00
2018-04-02T06:07:31.027Z,50.63
2018-04-02T06:08:31.014Z,50.63
2018-04-02T06:09:30.994Z,67.50
2018-04-02T06:10:31.036Z,73.13
2018-04-02T06:11:30.962Z,78.75
2018-04-02T06:12:30.961Z,78.75
2018-04-02T06:13:30.927Z,90.00
2018-04-02T06:14:30.951Z,90.00
2018-04-02T06:15:31.287Z,90.00
2018-04-02T06:16:30.869Z,95.63
2018-04-02T06:17:30.852Z,95.63
2018-04-02T06:18:30.848Z,101.25
2018-04-02T06:19:30.833Z,106.88
2018-04-02T06:20:31.766Z,106.88
2018-04-02T06:21:30.794Z,101.25
2018-04-02T06:22:30.781Z,95.63
2018-04-02T06:23:30.766Z,90.00
2018-04-02T06:24:30.730Z,90.00
2018-04-02T06:25:30.740Z,90.00
2018-04-02T06:26:30.723Z,90.00
2018-04-02T06:27:30.737Z,90.00
2018-04-02T06:28:30.672Z,95.63
2018-04-02T06:29:30.661Z,90.00
2018-04-02T06:30:31.254Z,84.38
2018-04-02T06:31:30.621Z,84.38
2018-04-02T06:32:30.819Z,78.75
2018-04-02T06:33:30.619Z,73.13
2018-04-02T06:34:30.604Z,73.13
2018-04-02T06:35:30.587Z,73.13
2018-04-02T06:36:30.559Z,78.75
2018-04-02T06:37:30.547Z,78.75
2018-04-02T06:38:30.548Z,78.75
2018-04-02T06:39:30.534Z,84.38
2018-04-02T06:40:30.505Z,84.38
2018-04-02T06:41:30.497Z,84.38
2018-04-02T06:42:30.449Z,78.75
2018-04-02T06:43:30.442Z,78.75
2018-04-02T06:44:30.475Z,73.13
2018-04-02T06:45:30.404Z,73.13
2018-04-02T06:46:30.389Z,67.50
2018-04-02T06:47:30.373Z,67.50
2018-04-02T06:48:30.355Z,73.13
2018-04-02T06:49:30.353Z,73.13
2018-04-02T06:50:30.407Z,73.13
2018-04-02T06:51:30.331Z,67.50
2018-04-02T06:52:30.317Z,61.88
2018-04-02T06:53:30.285Z,50.63
2018-04-02T06:54:30.311Z,45.00
2018-04-02T06:55:30.768Z,45.00
2018-04-02T06:56:30.295Z,45.00
2018-04-02T06:57:30.218Z,45.00
2018-04-02T06:58:30.215Z,45.00
2018-04-02T06:59:30.763Z,45.00
2018-04-02T07:00:30.197Z,50.63
2018-04-02T07:01:30.187Z,56.25
2018-04-02T07:02:30.134Z,56.25
2018-04-02T07:03:30.131Z,50.63
2018-04-02T07:04:30.170Z,45.00
2018-04-02T07:05:30.105Z,45.00
2018-04-02T07:06:30.158Z,50.63
2018-04-02T07:07:30.072Z,67.50
2018-04-02T07:08:30.076Z,90.00
2018-04-02T07:09:30.073Z,106.88
2018-04-02T07:10:30.027Z,118.13
2018-04-02T07:11:30.014Z,123.75
2018-04-02T07:12:30.025Z,123.75
2018-04-02T07:13:29.976Z,135.00
2018-04-02T07:14:29.959Z,140.63
2018-04-02T07:15:29.966Z,151.88
2018-04-02T07:16:29.970Z,157.50
2018-04-02T07:17:29.910Z,157.50
2018-04-02T07:18:29.889Z,157.50
2018-04-02T07:19:29.935Z,146.25
2018-04-02T07:20:29.865Z,123.75
2018-04-02T07:21:29.886Z,118.13
2018-04-02T07:22:29.857Z,123.75
2018-04-02T07:23:29.821Z,146.25
2018-04-02T07:24:29.804Z,151.88
2018-04-02T07:25:29.794Z,163.13
2018-04-02T07:26:29.835Z,168.75
2018-04-02T07:27:29.791Z,168.75
2018-04-02T07:28:29.841Z,168.75
2018-04-02T07:29:29.730Z,157.50
2018-04-02T07:30:30.287Z,151.88
2018-04-02T07:31:29.729Z,151.88
2018-04-02T07:32:29.709Z,151.88
2018-04-02T07:33:30.422Z,163.13
2018-04-02T07:34:30.266Z,174.38
2018-04-02T07:35:29.646Z,174.38
2018-04-02T07:36:31.285Z,180.00
2018-04-02T07:37:29.655Z,180.00
2018-04-02T07:38:29.836Z,180.00
2018-04-02T07:39:29.595Z,180.00
2018-04-02T07:40:30.325Z,185.63
2018-04-02T07:41:29.563Z,191.25
2018-04-02T07:42:30.276Z,196.88
2018-04-02T07:43:29.532Z,196.88
2018-04-02T07:44:30.338Z,202.50
2018-04-02T07:45:29.504Z,202.50
2018-04-02T07:46:29.481Z,202.50
2018-04-02T07:47:29.468Z,196.88
2018-04-02T07:48:29.442Z,191.25
2018-04-02T07:49:29.442Z,191.25
2018-04-02T07:50:29.452Z,185.63
2018-04-02T07:51:29.483Z,180.00
2018-04-02T07:52:29.422Z,180.00
2018-04-02T07:53:29.405Z,180.00
2018-04-02T07:54:29.361Z,180.00
2018-04-02T07:55:31.339Z,185.63
2018-04-02T07:56:29.376Z,191.25
2018-04-02T07:57:29.322Z,202.50
2018-04-02T07:58:29.332Z,219.38
2018-04-02T07:59:29.299Z,225.00
2018-04-02T08:00:29.289Z,230.63
2018-04-02T08:01:29.332Z,236.25
2018-04-02T08:02:29.317Z,247.50
2018-04-02T08:03:29.261Z,247.50
2018-04-02T08:04:29.328Z,247.50
2018-04-02T08:05:29.217Z,253.13
2018-04-02T08:06:29.252Z,258.75
2018-04-02T08:07:29.240Z,247.50
2018-04-02T08:08:29.199Z,241.88
2018-04-02T08:09:29.171Z,236.25
2018-04-02T08:10:29.236Z,225.00
2018-04-02T08:11:29.128Z,219.38
2018-04-02T08:12:29.186Z,213.75
2018-04-02T08:13:29.116Z,208.13
2018-04-02T08:14:29.104Z,208.13
2018-04-02T08:15:29.072Z,230.63
2018-04-02T08:16:29.085Z,236.25
2018-04-02T08:17:29.042Z,230.63
2018-04-02T08:18:29.153Z,258.75
2018-04-02T08:19:29.008Z,281.25
2018-04-02T08:20:29.011Z,281.25
2018-04-02T08:21:28.979Z,270.00
2018-04-02T08:22:28.981Z,286.88
2018-04-02T08:23:28.994Z,281.25
2018-04-02T08:24:28.945Z,264.38
2018-04-02T08:25:28.950Z,258.75
2018-04-02T08:26:28.915Z,275.63
2018-04-02T08:27:28.935Z,309.38
2018-04-02T08:28:28.935Z,303.75
2018-04-02T08:29:28.899Z,303.75
2018-04-02T08:30:28.907Z,309.38
2018-04-02T08:31:28.841Z,326.25
2018-04-02T08:32:28.867Z,315.00
2018-04-02T08:33:28.816Z,331.88
2018-04-02T08:34:29.783Z,315.00
2018-04-02T08:35:28.840Z,292.50
2018-04-02T08:36:28.796Z,275.63
2018-04-02T08:37:28.772Z,264.38
2018-04-02T08:38:28.777Z,264.38
2018-04-02T08:39:28.758Z,270.00
2018-04-02T08:40:28.791Z,275.63
2018-04-02T08:41:28.719Z,281.25
2018-04-02T08:42:28.717Z,292.50
2018-04-02T08:43:28.695Z,298.13
2018-04-02T08:44:28.706Z,309.38
2018-04-02T08:45:28.699Z,303.75
2018-04-02T08:46:28.714Z,303.75
2018-04-02T08:47:28.686Z,298.13
2018-04-02T08:48:28.666Z,286.88
2018-04-02T08:49:28.696Z,264.38
2018-04-02T08:50:28.762Z,253.13
2018-04-02T08:51:28.610Z,270.00
2018-04-02T08:52:28.567Z,298.13
2018-04-02T08:53:28.630Z,298.13
2018-04-02T08:54:28.549Z,298.13
2018-04-02T08:55:28.719Z,286.88
2018-04-02T08:56:28.525Z,309.38
2018-04-02T08:57:28.544Z,320.63
2018-04-02T08:58:28.492Z,331.88
2018-04-02T08:59:28.524Z,326.25
2018-04-02T09:00:28.469Z,303.75
2018-04-02T09:01:28.480Z,303.75
2018-04-02T09:02:28.446Z,309.38
2018-04-02T09:03:28.430Z,309.38
2018-04-02T09:04:28.512Z,309.38
2018-04-02T09:05:28.572Z,320.63
2018-04-02T09:06:28.622Z,331.88
2018-04-02T09:07:28.379Z,326.25
2018-04-02T09:08:28.377Z,326.25
2018-04-02T09:09:28.360Z,331.88
2018-04-02T09:10:28.335Z,343.13
2018-04-02T09:11:28.340Z,348.75
2018-04-02T09:12:28.352Z,348.75
2018-04-02T09:13:28.342Z,337.50
2018-04-02T09:14:28.369Z,326.25
2018-04-02T09:15:28.294Z,360.00
2018-04-02T09:16:28.288Z,376.88
2018-04-02T09:17:28.310Z,399.38
2018-04-02T09:18:28.323Z,405.00
2018-04-02T09:19:28.296Z,371.25
2018-04-02T09:20:28.299Z,354.38
2018-04-02T09:21:28.222Z,348.75
2018-04-02T09:22:28.196Z,354.38
2018-04-02T09:23:28.229Z,360.00
2018-04-02T09:24:28.197Z,376.88
2018-04-02T09:25:28.192Z,360.00
2018-04-02T09:26:28.208Z,343.13
2018-04-02T09:27:28.183Z,365.63
2018-04-02T09:28:28.131Z,371.25
2018-04-02T09:29:28.105Z,371.25
2018-04-02T09:30:28.167Z,405.00
2018-04-02T09:31:28.092Z,427.50
2018-04-02T09:32:28.108Z,433.13
2018-04-02T09:33:28.094Z,433.13
2018-04-02T09:34:28.111Z,438.75
2018-04-02T09:35:28.058Z,433.13
2018-04-02T09:36:28.055Z,421.88
2018-04-02T09:37:28.214Z,410.63
2018-04-02T09:38:28.094Z,393.75
2018-04-02T09:39:28.045Z,382.50
2018-04-02T09:40:28.929Z,376.88
2018-04-02T09:41:28.069Z,365.63
2018-04-02T09:42:28.103Z,331.88
2018-04-02T09:43:28.013Z,303.75
2018-04-02T09:44:27.958Z,298.13
2018-04-02T09:45:27.933Z,354.38
2018-04-02T09:46:27.922Z,382.50
2018-04-02T09:47:28.085Z,376.88
2018-04-02T09:48:27.910Z,382.50
2018-04-02T09:49:28.029Z,405.00
2018-04-02T09:50:27.956Z,427.50
2018-04-02T09:51:27.883Z,433.13
2018-04-02T09:52:28.816Z,450.00
2018-04-02T09:53:28.169Z,461.25
2018-04-02T09:54:28.830Z,455.63
2018-04-02T09:55:27.843Z,444.38
2018-04-02T09:56:27.811Z,438.75
2018-04-02T09:57:27.819Z,450.00
2018-04-02T09:58:27.891Z,455.63
2018-04-02T09:59:27.834Z,438.75
2018-04-02T10:00:29.378Z,393.75
2018-04-02T10:01:27.876Z,365.63
2018-04-02T10:02:27.740Z,365.63
2018-04-02T10:03:27.729Z,382.50
2018-04-02T10:04:27.759Z,360.00
2018-04-02T10:05:27.749Z,326.25
2018-04-02T10:06:27.701Z,343.13
2018-04-02T10:07:27.687Z,399.38
2018-04-02T10:08:27.694Z,410.63
2018-04-02T10:09:27.823Z,382.50
2018-04-02T10:10:27.734Z,376.88
2018-04-02T10:11:27.682Z,382.50
2018-04-02T10:12:27.676Z,382.50
2018-04-02T10:13:27.784Z,365.63
2018-04-02T10:14:27.917Z,343.13
2018-04-02T10:15:27.697Z,331.88
2018-04-02T10:16:27.611Z,337.50
2018-04-02T10:17:27.587Z,376.88
2018-04-02T10:18:27.574Z,450.00
2018-04-02T10:19:27.574Z,517.50
2018-04-02T10:20:27.603Z,523.13
2018-04-02T10:21:27.535Z,517.50
2018-04-02T10:22:43.629Z,511.88
2018-04-02T10:23:27.566Z,528.75
2018-04-02T10:24:28.331Z,562.50
2018-04-02T10:25:29.350Z,579.38
2018-04-02T10:26:28.349Z,568.13
2018-04-02T10:27:27.560Z,511.88
2018-04-02T10:28:27.531Z,489.38
2018-04-02T10:29:27.590Z,489.38
2018-04-02T10:30:27.441Z,489.38
2018-04-02T10:31:27.507Z,506.25
2018-04-02T10:32:27.463Z,511.88
2018-04-02T10:33:27.434Z,495.00
2018-04-02T10:34:27.429Z,472.50
2018-04-02T10:35:27.430Z,461.25
2018-04-02T10:36:27.404Z,455.63
2018-04-02T10:37:29.023Z,461.25
2018-04-02T10:38:27.378Z,450.00
2018-04-02T10:39:28.510Z,455.63
2018-04-02T10:40:27.543Z,438.75
2018-04-02T10:41:27.586Z,410.63
2018-04-02T10:42:27.348Z,365.63
2018-04-02T10:43:27.907Z,343.13
2018-04-02T10:44:27.401Z,360.00
2018-04-02T10:45:27.344Z,405.00
2018-04-02T10:46:30.741Z,405.00
2018-04-02T11:46:58.066Z,517.50
2018-04-02T11:47:49.130Z,495.00
2018-04-02T12:07:03.215Z,500.63
2018-04-02T12:08:03.243Z,421.88
2018-04-02T12:09:03.163Z,376.88
2018-04-02T12:10:03.134Z,331.88
2018-04-02T12:11:03.158Z,315.00
2018-04-02T12:12:03.175Z,298.13
2018-04-02T12:13:03.145Z,286.88
2018-04-02T12:14:03.131Z,281.25
2018-04-02T12:15:03.107Z,264.38
2018-04-02T12:16:03.101Z,247.50
2018-04-02T12:17:03.144Z,236.25
2018-04-02T12:18:03.103Z,236.25
2018-04-02T12:19:03.077Z,241.88
2018-04-02T12:20:03.072Z,247.50
2018-04-02T12:21:03.113Z,253.13
2018-04-02T12:22:03.027Z,258.75
2018-04-02T12:23:03.113Z,253.13
2018-04-02T12:24:03.055Z,247.50
2018-04-02T12:25:03.014Z,236.25
2018-04-02T12:26:02.997Z,236.25
2018-04-02T12:27:03.073Z,241.88
2018-04-02T12:28:02.981Z,241.88
2018-04-02T12:29:03.033Z,241.88
2018-04-02T12:30:02.979Z,241.88
2018-04-02T12:31:02.970Z,253.13
2018-04-02T12:32:02.955Z,258.75
2018-04-02T12:33:02.966Z,258.75
2018-04-02T12:34:02.921Z,241.88
2018-04-02T12:35:02.941Z,219.38
2018-04-02T12:36:03.096Z,185.63
2018-04-02T12:37:02.894Z,168.75
2018-04-02T12:38:02.917Z,163.13
2018-04-02T12:39:02.897Z,168.75
2018-04-02T12:40:02.895Z,180.00
2018-04-02T12:41:04.029Z,185.63
2018-04-02T12:42:02.895Z,174.38
2018-04-02T12:43:02.847Z,163.13
2018-04-02T12:44:02.875Z,163.13
2018-04-02T12:45:02.825Z,163.13
2018-04-02T12:46:02.810Z,157.50
2018-04-02T12:47:02.816Z,157.50
2018-04-02T12:48:02.795Z,151.88
2018-04-02T12:49:02.838Z,157.50
2018-04-02T12:50:02.787Z,157.50
2018-04-02T12:51:02.788Z,157.50
2018-04-02T12:52:02.755Z,157.50
2018-04-02T12:53:02.751Z,157.50
2018-04-02T12:54:02.722Z,174.38
2018-04-02T12:55:02.755Z,213.75
2018-04-02T12:56:02.749Z,247.50
2018-04-02T12:57:02.737Z,281.25
2018-04-02T12:58:02.685Z,320.63
2018-04-02T12:59:02.689Z,343.13
2018-04-02T13:00:02.672Z,376.88
2018-04-02T13:01:02.717Z,399.38
2018-04-02T13:02:02.646Z,393.75
2018-04-02T13:03:02.643Z,354.38
2018-04-02T13:04:02.623Z,354.38
2018-04-02T13:05:02.626Z,376.88
2018-04-02T13:06:02.615Z,371.25
2018-04-02T13:07:02.650Z,360.00
2018-04-02T13:08:02.610Z,343.13
2018-04-02T13:09:02.606Z,303.75
2018-04-02T13:10:02.562Z,258.75
2018-04-02T13:11:02.628Z,270.00
2018-04-02T13:12:02.548Z,275.63
2018-04-02T13:13:02.554Z,253.13
2018-04-02T13:14:02.541Z,241.88
2018-04-02T13:15:02.532Z,236.25
2018-04-02T13:16:02.512Z,236.25
2018-04-02T13:17:02.570Z,230.63
2018-04-02T13:18:02.487Z,213.75
2018-04-02T13:19:02.487Z,208.13
2018-04-02T13:20:02.485Z,208.13
2018-04-02T13:21:02.481Z,213.75
2018-04-02T13:22:02.500Z,191.25
2018-04-02T13:23:03.162Z,174.38
2018-04-02T13:24:02.448Z,174.38
2018-04-02T13:25:02.453Z,174.38
2018-04-02T13:26:02.422Z,174.38
2018-04-02T13:27:02.462Z,174.38
2018-04-02T13:28:02.441Z,180.00
2018-04-02T13:29:02.557Z,180.00
2018-04-02T13:30:02.419Z,180.00
2018-04-02T13:31:02.475Z,185.63
2018-04-02T13:32:03.025Z,191.25
2018-04-02T13:33:03.074Z,196.88
2018-04-02T13:34:02.384Z,202.50
2018-04-02T13:35:02.392Z,213.75
2018-04-02T13:36:02.350Z,225.00
2018-04-02T13:37:02.364Z,236.25
2018-04-02T13:38:02.620Z,236.25
2018-04-02T13:39:02.352Z,236.25
2018-04-02T13:40:02.296Z,230.63
2018-04-02T13:41:02.336Z,230.63
2018-04-02T13:42:02.447Z,236.25
2018-04-02T13:43:02.587Z,258.75
2018-04-02T13:44:02.334Z,275.63
2018-04-02T13:45:02.325Z,281.25
2018-04-02T13:46:02.238Z,315.00
2018-04-02T13:47:03.204Z,365.63
2018-04-02T13:48:02.228Z,399.38
2018-04-02T13:49:02.388Z,416.25
2018-04-02T13:50:03.132Z,421.88
2018-04-02T13:51:03.053Z,410.63
2018-04-02T13:52:02.159Z,376.88
2018-04-02T13:53:02.166Z,354.38
2018-04-02T13:54:02.183Z,354.38
2018-04-02T13:55:03.075Z,354.38
2018-04-02T13:56:02.164Z,343.13
2018-04-02T13:57:03.110Z,315.00
2018-04-02T13:58:02.278Z,298.13
2018-04-02T13:59:02.095Z,303.75
2018-04-02T14:00:02.096Z,286.88
2018-04-02T14:01:02.595Z,298.13
2018-04-02T14:02:02.285Z,320.63
2018-04-02T14:03:02.100Z,348.75
2018-04-02T14:04:02.090Z,382.50
2018-04-02T14:05:02.319Z,399.38
2018-04-02T14:06:02.174Z,410.63
2018-04-02T14:07:02.156Z,416.25
2018-04-02T14:08:02.197Z,438.75
2018-04-02T14:09:02.022Z,450.00